Terminal Aerodrome Forecast
Issued by NWS

Home | Current Version | Previous Version | Graphics & Text | Print | Product List | Glossary On
Versions: 1 2 3 4 5 6 7 8 9 10 11 12 13 14 15 16 17 18 19 20 21 22 23 24
000
FTUS43 KBIS 191400 AAC
TAFMOT
TAF AMD
KMOT 191446Z 1915/2012 31018G26KT P6SM VCSH SCT015 BKN030
      TEMPO 1915/1919 6SM -SHRA BKN020
     FM200200 32014KT P6SM SCT040
     FM201000 31012KT P6SM SCT250=

USA.gov is the U.S. government's official web portal to all federal, state and local government web resources and services.